Terminal Aerodrome Forecast
Issued by NWS

Current Version | Previous Version | Text Only | Print | Product List | Glossary Off
Versions: 1 2 3 4 5 6 7 8 9 10 11 12 13 14 15 16 17 18 19 20 21 22 23 24 25

742
FTUS41 KPBZ 271136
TAFMGW
TAF
KMGW 271136Z 2712/2812 01004KT P6SM OVC012
     FM271400 03008KT P6SM BKN025
     FM271700 03008KT P6SM BKN050=

USA.gov is the U.S. government's official web portal to all federal, state and local government web resources and services.